Lake Worth, FL (33460)

6:52 AM EDT on August 29, 2014 (GMT -0400)
Lake Clarke Shores - Caribbean Rd. East | Change Station
CLOSE
Current Station
Personal Weather Station
Location: Lake Clarke Shores, FL
Elevation: 16 ft
Nearby Weather Stations

Elev 16 ft 26.63 °N, 80.07 °W | Updated 4 seconds ago

Scattered Clouds
Scattered Clouds
78.4 °F
Feels Like 82 °F
N
0.0
Wind Variable Wind from NW
Gusts 0.0 mph

Today
High -- | Low -- °F
--% Chance of Precip.
Yesterday
High -- | Low -- °F
Precip. -- in
6:58 AM 7:43 PM
Waxing Crescent, 13% visible
Pressure 30.01 in
Visibility 10.0 miles
Clouds Few 2500 ft
Scattered Clouds 25000 ft
Heat Index 82 °F
Dew Point 76 °F
Humidity 92%
Rainfall 22.31 in
Snow Depth Not available.
UV 0 out of 12
Pollen 5.00 out of 12
PM2.5 Good
Flu Activity Not available.
METAR KPBI 290953Z 00000KT 10SM FEW025 SCT250 26/23 A3001 RMK AO2 SLP160 T02560233

More Conditions Fewer Conditions

Pressure 30.01 in
Visibility 10.0 miles
Clouds Few 2500 ft
Scattered Clouds 25000 ft
Heat Index 82 °F
Dew Point 76 °F
Humidity 92%
Rainfall 22.31 in
Snow Depth Not available.
UV 0 out of 12
Pollen 5.00 out of 12
PM2.5 Good
Flu Activity Not available.
METAR KPBI 290953Z 00000KT 10SM FEW025 SCT250 26/23 A3001 RMK AO2 SLP160 T02560233

More Conditions Fewer Conditions

10-Day Weather Forecast

Almanac

Astronomy

Aug. 29, 2014 Rise Set
Actual Time 6:58 AM EDT 7:43 PM EDT
Civil Twilight 6:34 AM EDT 8:06 PM EDT
Nautical Twilight 6:07 AM EDT 8:34 PM EDT
Astronomical Twilight 5:38 AM EDT 9:02 PM EDT
Moon 10:21 AM EDT 10:06 PM EDT
Length of Visible Light 13h 31m
Length of Day
12h 44m
Tomorrow will be 1m 29s shorter.
Waxing Crescent, 13% of the Moon is Illuminated
Today
Waxing Crescent
Sep 2
First Quarter
Sep 8
Full
Sep 15
Last Quarter
Sep 24
New

Today's Extremes

State Highs State Lows

Community

WunderPhotos

Upload Photos

1,748,208 photos uploaded!

Nearby

Air Quality

  Air Quality AQ Index Pollutant
Yesterday Good
OZONE
Current Good
PM2.5
Friday Good
OZONE
Friday Good
PM2.5

Snow Depth

Station Depth Elevation
No new snow has been reported.

Earthquake Activity

City Distance Mag. Time & Date
No recent earthquake activity has been reported nearby.
Minimum magnitude displayed is 2.5.

Coastal Water Temperatures

Place Temperature
Lake Worth, FL 87.1 °F
Virginia Key, FL 86.0 °F

Nearby Weather Stations